Time;durP1;ratioP1;P1;durP2;ratioP2;P2;SDS_P1;SDS_P2;PMS_P1;PMS_P2;Temp;Humidity;BMP_temperature;BMP_pressure;BME280_temperature;BME280_humidity;BME280_pressure;Samples;Min_cycle;Max_cycle;Signal;HPM_P1;HPM_P2
2023/10/02 00:02:40;;;;;;;112.25;58.70;;;21.70;84.50;;;;;;4928195;28;94051;-42
2023/10/02 00:05:05;;;;;;;111.13;58.55;;;21.80;84.70;;;;;;4932707;28;89569;-40
2023/10/02 00:07:42;;;;;;;111.83;59.00;;;21.80;84.60;;;;;;4939697;28;90884;-41
2023/10/02 00:10:08;;;;;;;114.00;59.00;;;21.80;85.40;;;;;;4933913;28;93259;-40
2023/10/02 00:12:34;;;;;;;112.72;59.03;;;21.80;84.60;;;;;;4934941;28;89752;-40
2023/10/02 00:15:12;;;;;;;113.85;59.10;;;21.70;84.60;;;;;;4930774;28;89905;-40
2023/10/02 00:17:43;;;;;;;114.63;59.47;;;21.70;84.60;;;;;;4931598;28;93612;-43
2023/10/02 00:20:14;;;;;;;;;;;21.80;84.60;;;;;;4935102;28;91054;-41
2023/10/02 00:22:43;;;;;;;;;;;21.70;84.60;;;;;;4931644;28;90407;-41
2023/10/02 00:25:09;;;;;;;112.07;58.47;;;21.70;84.80;;;;;;4941152;28;89680;-41
2023/10/02 00:27:39;;;;;;;111.93;58.75;;;21.70;84.80;;;;;;4934499;28;94316;-42
2023/10/02 00:30:07;;;;;;;112.90;58.97;;;21.70;84.70;;;;;;4929874;28;90832;-40
2023/10/02 00:32:34;;;;;;;114.65;59.38;;;21.70;84.70;;;;;;4935412;28;91098;-40
2023/10/02 00:35:02;;;;;;;112.35;58.65;;;21.70;84.60;;;;;;4932246;28;90742;-41
2023/10/02 00:37:43;;;;;;;110.95;58.35;;;21.70;85.50;;;;;;4938140;28;89638;-42
2023/10/02 00:40:26;;;;;;;113.20;59.35;;;21.70;84.80;;;;;;4936583;28;89455;-41
2023/10/02 00:42:56;;;;;;;113.38;58.85;;;21.70;84.70;;;;;;4933309;28;90754;-41
2023/10/02 00:45:23;;;;;;;113.80;59.38;;;21.70;84.80;;;;;;4936890;28;90007;-43
2023/10/02 00:47:52;;;;;;;113.53;59.08;;;21.70;84.70;;;;;;4933683;28;92559;-41
2023/10/02 00:50:21;;;;;;;112.30;59.20;;;21.70;84.70;;;;;;4936867;28;89266;-40
2023/10/02 00:52:50;;;;;;;113.80;59.00;;;21.70;84.70;;;;;;4931059;28;89955;-40
2023/10/02 00:55:25;;;;;;;113.32;59.20;;;21.60;84.90;;;;;;4926710;28;91017;-41
2023/10/02 00:57:53;;;;;;;113.70;59.25;;;21.60;84.90;;;;;;4934380;28;92133;-41
2023/10/02 01:00:21;;;;;;;112.43;58.88;;;21.60;84.90;;;;;;4934045;28;91053;-40
2023/10/02 01:02:51;;;;;;;110.82;58.60;;;21.60;84.90;;;;;;4926997;28;90060;-41
2023/10/02 01:05:25;;;;;;;112.20;58.85;;;21.60;85.00;;;;;;4932059;28;91528;-40
2023/10/02 01:07:54;;;;;;;113.38;58.55;;;21.60;85.00;;;;;;4938277;28;89844;-40
2023/10/02 01:10:23;;;;;;;113.40;58.75;;;21.60;85.00;;;;;;4935077;28;89544;-40
2023/10/02 01:12:50;;;;;;;111.97;58.90;;;21.60;84.90;;;;;;4924982;28;91900;-40
2023/10/02 01:15:21;;;;;;;111.28;58.47;;;21.60;84.90;;;;;;4931827;28;94476;-41
2023/10/02 01:17:50;;;;;;;113.43;58.85;;;21.60;84.90;;;;;;4932325;28;90184;-40
2023/10/02 01:20:53;;;;;;;114.15;58.67;;;21.50;84.90;;;;;;4932738;28;90176;-40
2023/10/02 01:23:16;;;;;;;113.03;59.03;;;21.50;85.00;;;;;;4934167;28;95107;-41
2023/10/02 01:25:46;;;;;;;111.00;58.85;;;21.50;85.10;;;;;;4908922;28;90395;-40
2023/10/02 01:28:13;;;;;;;112.07;58.78;;;21.50;85.10;;;;;;4933193;28;89567;-41
2023/10/02 01:30:47;;;;;;;113.15;58.88;;;21.50;85.00;;;;;;4929305;28;89881;-40
2023/10/02 01:35:47;;;;;;;114.20;59.00;;;21.50;85.00;;;;;;4932856;28;89303;-40
2023/10/02 01:38:14;;;;;;;111.45;58.05;;;21.50;85.10;;;;;;4931169;28;89451;-40
2023/10/02 01:40:54;;;;;;;113.97;58.85;;;21.50;85.20;;;;;;4932161;28;90109;-41
2023/10/02 01:43:24;;;;;;;112.57;58.58;;;21.50;85.10;;;;;;4930727;28;90300;-40
2023/10/02 01:45:56;;;;;;;110.68;58.55;;;21.50;85.00;;;;;;4930564;28;89487;-40
2023/10/02 01:51:15;;;;;;;112.28;58.83;;;21.50;85.10;;;;;;4931602;28;89468;-41
2023/10/02 01:53:51;;;;;;;114.38;59.13;;;21.50;85.20;;;;;;4932177;28;90306;-40
2023/10/02 01:56:18;;;;;;;112.43;58.90;;;21.50;85.10;;;;;;4927831;28;89940;-40
2023/10/02 01:58:45;;;;;;;112.32;58.65;;;21.50;84.90;;;;;;4930578;28;89540;-40
2023/10/02 02:01:11;;;;;;;113.07;58.85;;;21.50;84.90;;;;;;4919491;28;89734;-41
2023/10/02 02:03:42;;;;;;;113.28;59.25;;;21.50;85.00;;;;;;4926397;28;89876;-43
2023/10/02 02:06:08;;;;;;;113.22;59.03;;;21.50;85.00;;;;;;4938819;28;89785;-41
2023/10/02 02:08:35;;;;;;;111.75;58.63;;;21.50;85.00;;;;;;4930488;28;90520;-40
2023/10/02 02:11:17;;;;;;;112.60;58.90;;;21.50;85.00;;;;;;4929263;28;90445;-41
2023/10/02 02:13:44;;;;;;;;;;;21.50;85.00;;;;;;4926227;28;91387;-41
2023/10/02 02:16:22;;;;;;;113.38;59.35;;;21.40;85.10;;;;;;4931868;28;89595;-40
2023/10/02 02:18:50;;;;;;;113.25;59.17;;;21.40;85.20;;;;;;4934908;28;89716;-40
2023/10/02 02:21:18;;;;;;;114.60;59.50;;;21.40;85.10;;;;;;4927920;28;89855;-39
2023/10/02 02:23:45;;;;;;;111.85;58.78;;;21.40;85.10;;;;;;4930119;28;90539;-39
2023/10/02 02:26:27;;;;;;;114.55;59.03;;;21.40;85.10;;;;;;4930381;28;90272;-39
2023/10/02 02:28:53;;;;;;;112.28;58.70;;;21.40;85.10;;;;;;4928851;28;89787;-39
2023/10/02 02:31:31;;;;;;;111.50;58.50;;;21.40;84.90;;;;;;4938618;28;89117;-42
2023/10/02 02:34:14;;;;;;;112.57;59.40;;;21.40;85.10;;;;;;4928943;28;90572;-41
2023/10/02 02:36:47;;;;;;;112.10;58.97;;;21.40;84.80;;;;;;4937023;28;93657;-40
2023/10/02 02:39:16;;;;;;;113.00;58.63;;;21.40;84.80;;;;;;4934175;28;91010;-39
2023/10/02 02:41:43;;;;;;;112.13;58.95;;;21.40;85.00;;;;;;4930567;28;92101;-40
2023/10/02 02:44:36;;;;;;;112.68;58.47;;;21.40;85.00;;;;;;4924871;28;90161;-39
2023/10/02 02:47:07;;;;;;;112.47;58.88;;;21.40;85.10;;;;;;4931708;28;91031;-39
2023/10/02 02:49:43;;;;;;;;;;;21.40;85.00;;;;;;4928898;28;93721;-39
2023/10/02 02:52:08;;;;;;;;;;;21.30;85.00;;;;;;4938040;28;89536;-40
2023/10/02 02:54:34;;;;;;;;;;;21.30;85.10;;;;;;4934891;28;91683;-40
2023/10/02 02:57:00;;;;;;;;;;;21.30;85.00;;;;;;4937902;28;89337;-39
2023/10/02 02:59:27;;;;;;;;;;;21.30;85.10;;;;;;4939691;28;89862;-40
2023/10/02 03:02:08;;;;;;;;;;;21.30;85.20;;;;;;4937269;28;90305;-39
2023/10/02 03:04:35;;;;;;;;;;;21.30;85.10;;;;;;4936224;28;90960;-41
2023/10/02 03:07:09;;;;;;;;;;;21.30;85.10;;;;;;4932895;28;91713;-39
2023/10/02 03:09:35;;;;;;;;;;;21.30;85.10;;;;;;4935010;28;89628;-40
2023/10/02 03:12:05;;;;;;;;;;;21.30;85.10;;;;;;4934033;28;89654;-40
2023/10/02 03:14:32;;;;;;;;;;;21.30;85.00;;;;;;4932875;28;89460;-39
2023/10/02 03:17:22;;;;;;;;;;;21.30;84.90;;;;;;4936611;28;89825;-42
2023/10/02 03:19:45;;;;;;;;;;;21.30;84.90;;;;;;4938588;28;93852;-40
2023/10/02 03:22:11;;;;;;;;;;;21.30;85.00;;;;;;4935269;28;91293;-39
2023/10/02 03:24:39;;;;;;;;;;;21.30;84.90;;;;;;4935739;28;92840;-40
2023/10/02 03:27:08;;;;;;;;;;;21.30;85.60;;;;;;4928686;28;89472;-39
2023/10/02 03:29:34;;;;;;;;;;;21.20;84.90;;;;;;4940290;28;90908;-40
2023/10/02 03:31:59;;;;;;;;;;;21.20;84.80;;;;;;4936574;28;91924;-39
2023/10/02 03:34:27;;;;;;;;;;;21.20;84.80;;;;;;4940731;28;89769;-40
2023/10/02 03:36:54;;;;;;;;;;;21.20;84.70;;;;;;4933992;28;90864;-39
2023/10/02 03:42:12;;;;;;;;;;;21.20;84.90;;;;;;4937801;28;94072;-40
2023/10/02 03:44:38;;;;;;;;;;;21.20;84.80;;;;;;4928988;28;90373;-43
2023/10/02 03:47:04;;;;;;;;;;;21.20;84.70;;;;;;4935836;28;90193;-39
2023/10/02 03:49:32;;;;;;;;;;;21.20;84.80;;;;;;4937856;28;90509;-39
2023/10/02 03:51:57;;;;;;;;;;;21.20;84.80;;;;;;4938017;28;94190;-40
2023/10/02 03:54:23;;;;;;;;;;;21.20;84.70;;;;;;4930519;28;93255;-39
2023/10/02 03:56:55;;;;;;;;;;;21.20;84.70;;;;;;4939475;28;91083;-39
2023/10/02 03:59:25;;;;;;;;;;;21.20;84.80;;;;;;4941572;28;89728;-39
2023/10/02 04:01:51;;;;;;;;;;;21.10;84.70;;;;;;4930547;28;89537;-39
2023/10/02 04:06:42;;;;;;;;;;;21.10;84.60;;;;;;4934813;28;91522;-40
2023/10/02 04:11:34;;;;;;;;;;;21.10;84.70;;;;;;4933789;28;89889;-40
2023/10/02 04:14:00;;;;;;;;;;;21.10;84.50;;;;;;4940891;28;90115;-40
2023/10/02 04:16:28;;;;;;;;;;;21.20;84.60;;;;;;4935363;28;89609;-39
2023/10/02 04:19:00;;;;;;;;;;;21.10;84.60;;;;;;4936168;28;90402;-40
2023/10/02 04:21:27;;;;;;;;;;;21.10;84.50;;;;;;4935037;28;90196;-40
2023/10/02 04:23:53;;;;;;;;;;;21.10;84.50;;;;;;4933797;28;89600;-40
2023/10/02 04:26:20;;;;;;;;;;;21.10;84.50;;;;;;4935767;28;89896;-40
2023/10/02 04:28:54;;;;;;;;;;;21.10;84.40;;;;;;4939979;28;89806;-40
2023/10/02 04:31:22;;;;;;;;;;;21.10;84.50;;;;;;4939206;28;89518;-39
2023/10/02 04:33:54;;;;;;;;;;;21.10;84.50;;;;;;4930651;28;89782;-41
2023/10/02 04:36:34;;;;;;;;;;;21.10;84.40;;;;;;4936335;28;89291;-40
2023/10/02 04:39:04;;;;;;;;;;;21.10;84.50;;;;;;4934045;28;92196;-40
2023/10/02 04:41:37;;;;;;;;;;;21.10;84.30;;;;;;4931200;28;90343;-40
2023/10/02 04:44:04;;;;;;;;;;;21.10;84.20;;;;;;4935697;28;93354;-40
2023/10/02 04:46:32;;;;;;;;;;;21.10;85.00;;;;;;4939348;28;90608;-39
2023/10/02 04:48:59;;;;;;;;;;;21.10;84.30;;;;;;4916072;28;91867;-41
2023/10/02 04:51:28;;;;;;;;;;;21.10;84.30;;;;;;4940614;28;92496;-40
2023/10/02 04:53:57;;;;;;;;;;;21.00;84.30;;;;;;4939881;28;89886;-40
2023/10/02 04:56:24;;;;;;;;;;;21.10;85.30;;;;;;4932336;28;90118;-40
2023/10/02 04:58:51;;;;;;;;;;;21.00;84.30;;;;;;4936077;28;90288;-40
2023/10/02 05:01:29;;;;;;;;;;;21.10;84.30;;;;;;4936591;28;88660;-39
2023/10/02 05:03:55;;;;;;;;;;;21.10;84.20;;;;;;4930460;28;90348;-40
2023/10/02 05:06:43;;;;;;;;;;;21.10;84.20;;;;;;4936933;28;89431;-40
2023/10/02 05:11:52;;;;;;;;;;;21.10;84.20;;;;;;4932544;28;90866;-40
2023/10/02 05:14:33;;;;;;;;;;;21.00;84.10;;;;;;4933153;28;90629;-40
2023/10/02 05:17:19;;;;;;;;;;;21.00;84.20;;;;;;4933042;28;94564;-40
2023/10/02 05:20:00;;;;;;;;;;;21.10;84.00;;;;;;4925172;28;89606;-41
2023/10/02 05:22:27;;;;;;;;;;;21.00;84.10;;;;;;4935364;28;89643;-40
2023/10/02 05:24:59;;;;;;;;;;;21.00;84.00;;;;;;4936407;28;89573;-40
2023/10/02 05:27:36;;;;;;;;;;;21.00;83.90;;;;;;4926805;28;93431;-41
2023/10/02 05:30:12;;;;;;;;;;;21.00;83.90;;;;;;4928458;28;89937;-40
2023/10/02 05:32:38;;;;;;;;;;;21.00;84.00;;;;;;4931892;28;91042;-40
2023/10/02 05:35:05;;;;;;;;;;;21.00;84.30;;;;;;4930006;28;90612;-41
2023/10/02 05:37:32;;;;;;;;;;;21.10;84.50;;;;;;4936019;28;90650;-40
2023/10/02 05:42:53;;;;;;;;;;;21.00;84.70;;;;;;4920294;28;91211;-42
2023/10/02 05:46:07;;;;;;;;;;;21.20;84.20;;;;;;4923243;28;90127;-40
2023/10/02 05:48:08;;;;;;;;;;;21.20;84.40;;;;;;4923894;28;89711;-40
2023/10/02 05:50:34;;;;;;;;;;;21.30;84.10;;;;;;4930854;28;89417;-39
2023/10/02 05:53:00;;;;;;;;;;;21.30;83.90;;;;;;4930544;28;88675;-39
2023/10/02 05:55:25;;;;;;;;;;;21.30;83.80;;;;;;4926776;28;90247;-38
2023/10/02 05:57:54;;;;;;;;;;;21.30;83.00;;;;;;4930758;28;89838;-40
2023/10/02 06:00:20;;;;;;;;;;;21.30;83.10;;;;;;4923353;28;92015;-36
2023/10/02 06:03:00;;;;;;;;;;;21.30;82.70;;;;;;4922302;28;94356;-42
2023/10/02 06:05:29;;;;;;;;;;;21.30;82.60;;;;;;4922495;28;89631;-39
2023/10/02 06:07:59;;;;;;;;;;;21.40;82.40;;;;;;4927678;28;90110;-41
2023/10/02 06:10:25;;;;;;;;;;;21.40;82.20;;;;;;4911087;28;89513;-37
2023/10/02 06:13:05;;;;;;;;;;;21.40;82.80;;;;;;4933356;28;89246;-37
2023/10/02 06:15:43;;;;;;;;;;;21.40;82.50;;;;;;4913139;28;92051;-39
2023/10/02 06:18:09;;;;;;;;;;;21.50;82.50;;;;;;4931843;28;88772;-40
2023/10/02 06:20:35;;;;;;;;;;;21.50;82.10;;;;;;4934983;28;89491;-38
2023/10/02 06:23:19;;;;;;;;;;;21.50;82.00;;;;;;4931912;28;90381;-37
2023/10/02 06:25:46;;;;;;;;;;;21.50;82.10;;;;;;4934444;28;92528;-38
2023/10/02 06:28:25;;;;;;;;;;;21.50;81.90;;;;;;4935341;28;90334;-37
2023/10/02 06:30:51;;;;;;;;;;;21.50;81.90;;;;;;4928733;28;89628;-39
2023/10/02 06:33:21;;;;;;;;;;;21.50;82.00;;;;;;4930148;28;89791;-39
2023/10/02 06:36:00;;;;;;;;;;;21.60;81.90;;;;;;4930022;28;91107;-41
2023/10/02 06:38:29;;;;;;;;;;;21.60;82.00;;;;;;4934035;28;90053;-41
2023/10/02 06:40:58;;;;;;;;;;;21.60;82.00;;;;;;4917713;28;90116;-41
2023/10/02 06:43:32;;;;;;;;;;;21.60;82.00;;;;;;4929017;28;92858;-41
2023/10/02 06:46:09;;;;;;;;;;;21.60;82.10;;;;;;4933222;28;89518;-39
2023/10/02 06:48:43;;;;;;;;;;;21.60;81.80;;;;;;4921853;28;91093;-38
2023/10/02 06:51:11;;;;;;;;;;;21.70;82.20;;;;;;4930205;28;90881;-37
2023/10/02 06:53:43;;;;;;;;;;;21.60;82.10;;;;;;4925740;28;93567;-37
2023/10/02 06:56:11;;;;;;;;;;;21.60;82.20;;;;;;4922526;28;89692;-39
2023/10/02 06:58:52;;;;;;;;;;;21.70;82.40;;;;;;4935065;28;89933;-39
2023/10/02 07:01:26;;;;;;;;;;;21.70;82.00;;;;;;4928433;28;90170;-40
2023/10/02 07:03:52;;;;;;;;;;;21.70;81.90;;;;;;4928450;28;89684;-36
2023/10/02 07:06:19;;;;;;;;;;;21.80;82.10;;;;;;4929159;28;90935;-40
2023/10/02 07:08:47;;;;;;;;;;;21.80;81.80;;;;;;4929675;28;90322;-37
2023/10/02 07:11:13;;;;;;;;;;;21.80;82.20;;;;;;4938736;28;90229;-38
2023/10/02 07:13:51;;;;;;;;;;;21.80;82.80;;;;;;4930254;28;90065;-40
2023/10/02 07:16:17;;;;;;;;;;;21.70;82.70;;;;;;4931605;28;91281;-41
2023/10/02 07:18:49;;;;;;;;;;;21.80;82.70;;;;;;4926114;28;89559;-43
2023/10/02 07:21:19;;;;;;;;;;;21.80;82.40;;;;;;4931780;28;89187;-39
2023/10/02 07:23:45;;;;;;;;;;;21.80;82.60;;;;;;4937337;28;91514;-40
2023/10/02 07:26:20;;;;;;;;;;;21.80;82.90;;;;;;4938238;28;89964;-41
2023/10/02 07:28:51;;;;;;;;;;;21.80;82.70;;;;;;4930867;28;93586;-37
2023/10/02 07:31:17;;;;;;;;;;;21.80;82.70;;;;;;4924481;28;90816;-39
2023/10/02 07:33:44;;;;;;;;;;;21.80;82.50;;;;;;4929549;28;89220;-38
2023/10/02 07:36:14;;;;;;;;;;;21.80;81.80;;;;;;4927552;28;94857;-38
2023/10/02 07:38:42;;;;;;;;;;;21.90;81.90;;;;;;4933728;28;89871;-38
2023/10/02 07:41:17;;;;;;;;;;;21.90;81.90;;;;;;4929618;28;91239;-43
2023/10/02 07:43:42;;;;;;;;;;;21.60;78.40;;;;;;4921512;28;89998;-45
2023/10/02 07:46:21;;;;;;;;;;;21.00;80.70;;;;;;4927559;28;93048;-44
2023/10/02 07:48:57;;;;;;;;;;;20.80;81.70;;;;;;4916318;28;90285;-44
2023/10/02 07:51:58;;;;;;;;;;;20.80;80.70;;;;;;4934760;28;89808;-44
2023/10/02 07:54:17;;;;;;;;;;;20.50;82.70;;;;;;4935161;28;90655;-43
2023/10/02 07:56:47;;;;;;;;;;;20.50;82.80;;;;;;4929908;28;89714;-45
2023/10/02 07:59:14;;;;;;;;;;;20.50;83.60;;;;;;4933472;28;89545;-43
2023/10/02 08:01:39;;;;;;;;;;;20.40;83.60;;;;;;4927754;28;90457;-44
2023/10/02 08:04:06;;;;;;;;;;;20.40;84.00;;;;;;4931855;28;94701;-45
2023/10/02 08:06:36;;;;;;;;;;;20.40;83.80;;;;;;4936341;28;90656;-45
2023/10/02 08:11:54;;;;;;;;;;;20.50;83.80;;;;;;4928996;28;91001;-47
2023/10/02 08:19:56;;;;;;;;;;;20.40;84.90;;;;;;4901191;28;89798;-47
2023/10/02 08:22:23;;;;;;;;;;;20.50;84.10;;;;;;4928107;28;92292;-44
2023/10/02 08:24:49;;;;;;;;;;;20.50;84.40;;;;;;4928968;28;89773;-46
2023/10/02 08:27:15;;;;;;;;;;;20.50;84.60;;;;;;4929228;28;91919;-47
2023/10/02 08:29:41;;;;;;;;;;;20.50;84.60;;;;;;4928668;28;90776;-47
2023/10/02 08:32:07;;;;;;;;;;;20.50;84.20;;;;;;4930321;28;91165;-47
2023/10/02 08:34:32;;;;;;;;;;;20.50;84.60;;;;;;4923928;28;91221;-45
2023/10/02 08:37:12;;;;;;;;;;;20.60;84.10;;;;;;4930955;28;90316;-45
2023/10/02 08:39:41;;;;;;;;;;;20.50;84.00;;;;;;4930869;28;89589;-44
2023/10/02 08:42:10;;;;;;;;;;;20.40;85.90;;;;;;4926105;28;90106;-45
2023/10/02 08:44:38;;;;;;;;;;;20.40;84.60;;;;;;4929247;28;91353;-44
2023/10/02 08:47:06;;;;;;;;;;;20.50;84.60;;;;;;4919252;28;91558;-44
2023/10/02 08:49:34;;;;;;;;;;;20.60;84.30;;;;;;4935999;28;88865;-40
2023/10/02 08:52:03;;;;;;;;;;;20.60;84.20;;;;;;4931454;28;89807;-37
2023/10/02 08:54:31;;;;;;;;;;;20.70;82.30;;;;;;4932084;28;89929;-38
2023/10/02 08:57:06;;;;;;;;;;;20.70;84.20;;;;;;4937885;28;91017;-38
2023/10/02 08:59:38;;;;;;;;;;;20.80;83.80;;;;;;4936778;28;89532;-38
2023/10/02 09:02:14;;;;;;;;;;;20.90;84.30;;;;;;4913656;28;95053;-36
2023/10/02 09:04:41;;;;;;;;;;;20.90;84.10;;;;;;4923772;28;89839;-35
2023/10/02 09:07:21;;;;;;;;;;;20.90;84.10;;;;;;4929759;28;90624;-37
2023/10/02 09:09:54;;;;;;;;;;;20.90;83.90;;;;;;4916834;28;90187;-36
2023/10/02 09:12:19;;;;;;;;;;;21.00;82.50;;;;;;4931632;28;89772;-36
2023/10/02 09:14:46;;;;;;;;;;;21.00;82.90;;;;;;4942284;28;88633;-36
2023/10/02 09:17:25;;;;;;;;;;;21.10;83.10;;;;;;4933523;28;92400;-36
2023/10/02 09:19:54;;;;;;;;;;;21.10;83.60;;;;;;4943968;28;93455;-37
2023/10/02 09:22:21;;;;;;;;;;;21.20;81.10;;;;;;4936739;28;92171;-35
2023/10/02 09:24:59;;;;;;;;;;;21.10;82.10;;;;;;4921352;28;89661;-36
2023/10/02 09:27:30;;;;;;;;;;;21.20;81.00;;;;;;4921476;28;89750;-37
2023/10/02 09:30:16;;;;;;;;;;;21.30;82.50;;;;;;4927923;28;91355;-37
2023/10/02 09:32:49;;;;;;;;;;;21.20;82.90;;;;;;4922113;28;89998;-37
2023/10/02 09:35:39;;;;;;;;;;;21.20;84.00;;;;;;4927401;28;91484;-38
2023/10/02 09:38:10;;;;;;;;;;;21.30;82.40;;;;;;4921662;28;90324;-36
2023/10/02 09:43:23;;;;;;;;;;;21.40;83.10;;;;;;4929839;28;90337;-34
2023/10/02 09:45:53;;;;;;;;;;;21.40;82.70;;;;;;4925958;28;93225;-44
2023/10/02 09:51:25;;;;;;;;;;;21.50;83.80;;;;;;4932139;28;90988;-45
2023/10/02 09:54:06;;;;;;;;;;;21.50;84.40;;;;;;4927317;28;90203;-44
2023/10/02 09:56:51;;;;;;;;;;;21.70;84.00;;;;;;4925133;28;91064;-45
2023/10/02 09:59:22;;;;;;;;;;;21.70;83.60;;;;;;4924930;28;90338;-45
2023/10/02 10:02:07;;;;;;;;;;;21.80;83.50;;;;;;4919660;28;89847;-45
2023/10/02 10:04:59;;;;;;;;;;;21.90;83.50;;;;;;4923517;28;89954;-44
2023/10/02 10:07:39;;;;;;;;;;;21.90;82.70;;;;;;4920701;28;88922;-46
2023/10/02 10:10:27;;;;;;;;;;;22.00;82.20;;;;;;4925144;28;91005;-45
2023/10/02 10:12:56;;;;;;;;;;;22.10;82.30;;;;;;4922340;28;91594;-46
2023/10/02 10:15:26;;;;;;;;;;;22.10;82.30;;;;;;4930479;28;90408;-46
2023/10/02 10:17:51;;;;;;;;;;;22.10;82.10;;;;;;4931453;28;89539;-45
2023/10/02 10:20:20;;;;;;;;;;;22.20;82.60;;;;;;4923487;28;89594;-46
2023/10/02 10:22:51;;;;;;;;;;;22.30;82.50;;;;;;4929573;28;89498;-45
2023/10/02 10:30:25;;;;;;;;;;;22.30;82.30;;;;;;4922520;28;92484;-46
2023/10/02 10:35:41;;;;;;;;;;;22.30;81.80;;;;;;4934632;28;90545;-45
2023/10/02 10:38:22;;;;;;;;;;;22.40;82.10;;;;;;4927171;28;90760;-45
2023/10/02 10:41:09;;;;;;;;;;;22.40;82.00;;;;;;4927165;28;92852;-45
2023/10/02 10:43:55;;;;;;;;;;;22.40;82.20;;;;;;4926534;28;89972;-44
2023/10/02 10:46:21;;;;;;;;;;;22.40;81.50;;;;;;4930747;28;89602;-45
2023/10/02 10:49:08;;;;;;;;;;;22.50;81.60;;;;;;4922960;28;90796;-45
2023/10/02 10:51:37;;;;;;;;;;;22.50;81.20;;;;;;4935812;28;92472;-45
2023/10/02 10:54:13;;;;;;;;;;;22.40;81.50;;;;;;4924333;28;90332;-45
2023/10/02 10:56:45;;;;;;;;;;;22.40;81.40;;;;;;4927122;28;90856;-45
2023/10/02 10:59:22;;;;;;;;;;;22.40;81.50;;;;;;4937695;28;89360;-44
2023/10/02 11:02:09;;;;;;;;;;;22.50;81.00;;;;;;4922943;28;94180;-44
2023/10/02 11:04:34;;;;;;;;;;;22.60;80.70;;;;;;4924809;28;90215;-46
2023/10/02 11:06:59;;;;;;;;;;;22.60;80.30;;;;;;4931642;28;94019;-44
2023/10/02 11:09:25;;;;;;;;;;;22.60;80.30;;;;;;4927259;28;91332;-45
2023/10/02 11:11:52;;;;;;;;;;;22.60;80.30;;;;;;4931920;28;90219;-44
2023/10/02 11:14:21;;;;;;;;;;;22.50;80.40;;;;;;4921413;28;92389;-45
2023/10/02 11:16:51;;;;;;;;;;;22.60;81.10;;;;;;4930059;28;89973;-44
2023/10/02 11:22:01;;;;;;;;;;;22.50;81.40;;;;;;4931304;28;90781;-48
2023/10/02 11:24:27;;;;;;;;;;;22.60;81.10;;;;;;4928276;28;89979;-47
2023/10/02 11:27:03;;;;;;;;;;;22.60;81.10;;;;;;4934944;28;89643;-44
2023/10/02 11:29:34;;;;;;;;;;;22.50;81.30;;;;;;4935621;28;89638;-45
2023/10/02 11:34:44;;;;;;;;;;;22.80;81.20;;;;;;4927511;28;89523;-44
2023/10/02 11:37:13;;;;;;;;;;;22.90;81.10;;;;;;4936922;28;89495;-43
2023/10/02 11:39:39;;;;;;;;;;;23.00;81.70;;;;;;4928008;28;89735;-44
2023/10/02 11:42:06;;;;;;;;;;;22.90;80.40;;;;;;4932224;28;90887;-47
2023/10/02 11:44:34;;;;;;;;;;;23.00;80.50;;;;;;4927254;28;90914;-47
2023/10/02 11:47:00;;;;;;;;;;;22.90;80.50;;;;;;4933087;28;89805;-47
2023/10/02 11:49:29;;;;;;;;;;;23.00;79.30;;;;;;4933884;28;89571;-45
2023/10/02 11:52:01;;;;;;;;;;;23.00;80.60;;;;;;4929087;28;94574;-45
2023/10/02 11:54:27;;;;;;;;;;;23.10;81.10;;;;;;4931352;28;89850;-45
2023/10/02 11:56:53;;;;;;;;;;;23.20;82.00;;;;;;4927718;28;91473;-45
2023/10/02 11:59:18;;;;;;;;;;;23.20;80.80;;;;;;4932211;28;90889;-45
2023/10/02 12:01:45;;;;;;;;;;;23.20;80.30;;;;;;4929390;28;90787;-45
2023/10/02 12:04:11;;;;;;;;;;;23.30;79.40;;;;;;4930095;28;90663;-47
2023/10/02 12:06:38;;;;;;;;;;;23.30;80.50;;;;;;4934937;28;90207;-44
2023/10/02 12:09:04;;;;;;;;;;;23.30;80.50;;;;;;4925809;28;89569;-44
2023/10/02 12:11:34;;;;;;;;;;;23.30;80.70;;;;;;4936455;28;92017;-46
2023/10/02 12:13:59;;;;;;;;;;;23.30;79.50;;;;;;4932254;28;94314;-46
2023/10/02 12:16:25;;;;;;;;;;;23.40;80.10;;;;;;4931660;28;91195;-46
2023/10/02 12:18:51;;;;;;;;;;;23.40;81.20;;;;;;4928403;28;90675;-44
2023/10/02 12:21:19;;;;;;;;;;;23.40;80.50;;;;;;4930755;28;90528;-45
2023/10/02 12:23:44;;;;;;;;;;;23.40;79.30;;;;;;4933413;28;89964;-44
2023/10/02 12:26:14;;;;;;;;;;;23.40;80.00;;;;;;4927555;28;89778;-44
2023/10/02 12:28:40;;;;;;;;;;;23.40;79.70;;;;;;4920192;28;89578;-45
2023/10/02 12:31:10;;;;;;;;;;;23.50;80.00;;;;;;4920143;28;93462;-44
2023/10/02 12:33:41;;;;;;;;;;;23.50;79.90;;;;;;4928977;28;91561;-44
2023/10/02 12:36:11;;;;;;;;;;;23.60;80.30;;;;;;4909391;28;91384;-45
2023/10/02 12:38:36;;;;;;;;;;;23.60;79.80;;;;;;4931004;28;89571;-45
2023/10/02 12:41:09;;;;;;;;;;;23.60;79.20;;;;;;4923999;28;89820;-45
2023/10/02 12:43:35;;;;;;;;;;;23.60;80.00;;;;;;4927106;28;89942;-44
2023/10/02 12:46:03;;;;;;;;;;;23.60;79.70;;;;;;4928777;28;90991;-45
2023/10/02 12:48:33;;;;;;;;;;;23.70;79.20;;;;;;4926832;28;90219;-44
2023/10/02 12:51:03;;;;;;;;;;;23.70;79.20;;;;;;4932904;28;91071;-44
2023/10/02 12:53:28;;;;;;;;;;;23.70;79.10;;;;;;4926901;28;91109;-44
2023/10/02 12:55:55;;;;;;;;;;;23.80;78.50;;;;;;4932830;28;89719;-45
2023/10/02 12:58:21;;;;;;;;;;;23.80;78.50;;;;;;4929742;28;89875;-44
2023/10/02 13:00:48;;;;;;;;;;;23.80;79.10;;;;;;4931733;28;89631;-46
2023/10/02 13:03:13;;;;;;;;;;;23.70;78.30;;;;;;4929510;28;89903;-46
2023/10/02 13:05:39;;;;;;;;;;;23.70;78.30;;;;;;4928812;28;91218;-46
2023/10/02 13:08:04;;;;;;;;;;;23.70;78.40;;;;;;4933043;28;90236;-46
2023/10/02 13:10:30;;;;;;;;;;;23.70;78.50;;;;;;4931269;28;90769;-46
2023/10/02 13:12:57;;;;;;;;;;;23.80;78.60;;;;;;4933665;28;89929;-45
2023/10/02 13:15:23;;;;;;;;;;;23.80;78.20;;;;;;4927824;28;90526;-46
2023/10/02 13:17:49;;;;;;;;;;;23.80;78.50;;;;;;4929517;28;90309;-45
2023/10/02 13:20:14;;;;;;;;;;;23.90;78.00;;;;;;4930666;28;92434;-46
2023/10/02 13:22:40;;;;;;;;;;;23.90;77.60;;;;;;4932230;28;90234;-45
2023/10/02 13:25:06;;;;;;;;;;;23.90;77.20;;;;;;4927058;28;90772;-44
2023/10/02 13:27:31;;;;;;;;;;;23.90;76.50;;;;;;4933742;28;88868;-45
2023/10/02 13:29:57;;;;;;;;;;;23.90;76.90;;;;;;4931912;28;91331;-45
2023/10/02 13:32:23;;;;;;;;;;;23.90;77.00;;;;;;4928378;28;92137;-44
2023/10/02 13:34:50;;;;;;;;;;;24.00;76.50;;;;;;4922405;28;90514;-46
2023/10/02 13:37:16;;;;;;;;;;;24.00;76.30;;;;;;4922987;28;89296;-44
2023/10/02 13:39:42;;;;;;;;;;;24.00;75.80;;;;;;4927552;28;91537;-44
2023/10/02 13:42:08;;;;;;;;;;;24.10;75.40;;;;;;4907252;28;89751;-45
2023/10/02 13:44:34;;;;;;;;;;;24.10;76.60;;;;;;4927671;28;89995;-44
2023/10/02 13:47:00;;;;;;;;;;;24.10;76.30;;;;;;4928328;28;89449;-45
2023/10/02 13:49:27;;;;;;;;;;;24.10;76.70;;;;;;4931830;28;91351;-38
2023/10/02 13:51:52;;;;;;;;;;;24.10;76.00;;;;;;4925927;28;90752;-37
2023/10/02 13:54:18;;;;;;;;;;;24.10;76.80;;;;;;4936016;28;89566;-38
2023/10/02 13:56:45;;;;;;;;;;;24.10;76.50;;;;;;4931111;28;91465;-37
2023/10/02 13:59:11;;;;;;;;;;;24.10;76.10;;;;;;4932359;28;90809;-37
2023/10/02 14:01:36;;;;;;;;;;;24.10;75.40;;;;;;4930594;28;90448;-36
2023/10/02 14:04:06;;;;;;;;;;;24.10;75.30;;;;;;4937964;28;89725;-36
2023/10/02 14:06:32;;;;;;;;;;;24.10;75.00;;;;;;4929429;28;91548;-37
2023/10/02 14:08:58;;;;;;;;;;;24.20;75.20;;;;;;4936054;28;90508;-37
2023/10/02 14:11:24;;;;;;;;;;;24.20;75.10;;;;;;4923963;28;94338;-37
2023/10/02 14:13:51;;;;;;;;;;;24.20;75.30;;;;;;4916225;28;91751;-37
2023/10/02 14:16:20;;;;;;;;;;;24.30;74.60;;;;;;4934288;28;90446;-36
2023/10/02 14:18:53;;;;;;;;;;;24.30;74.60;;;;;;4925492;28;89582;-37
2023/10/02 14:21:21;;;;;;;;;;;24.30;74.70;;;;;;4927017;28;91081;-36
2023/10/02 14:23:47;;;;;;;;;;;24.20;74.10;;;;;;4929596;28;93545;-36
2023/10/02 14:26:16;;;;;;;;;;;24.00;74.40;;;;;;4929669;28;90067;-36
2023/10/02 14:28:41;;;;;;;;;;;23.90;75.00;;;;;;4929652;28;90081;-36
2023/10/02 14:31:07;;;;;;;;;;;24.00;74.70;;;;;;4932146;28;90021;-36
2023/10/02 14:33:36;;;;;;;;;;;24.00;74.80;;;;;;4935567;28;95485;-36
2023/10/02 14:36:07;;;;;;;;;;;24.00;74.70;;;;;;4932047;28;90081;-36
2023/10/02 14:38:33;;;;;;;;;;;24.00;75.00;;;;;;4931573;28;94225;-36
2023/10/02 14:40:58;;;;;;;;;;;24.00;74.90;;;;;;4930422;28;89236;-36
2023/10/02 14:43:24;;;;;;;;;;;24.00;74.90;;;;;;4939436;28;90311;-36
2023/10/02 14:45:51;;;;;;;;;;;24.00;75.00;;;;;;4929878;28;89746;-36
2023/10/02 14:48:19;;;;;;;;;;;24.00;74.90;;;;;;4929606;28;91093;-37
2023/10/02 14:50:44;;;;;;;;;;;24.00;74.90;;;;;;4939273;28;91672;-37
2023/10/02 14:53:11;;;;;;;;;;;24.00;75.00;;;;;;4935414;28;89852;-36
2023/10/02 14:55:38;;;;;;;;;;;24.00;74.90;;;;;;4935397;28;90070;-36